Time;durP1;ratioP1;P1;durP2;ratioP2;P2;SDS_P1;SDS_P2;PMS_P1;PMS_P2;Temp;Humidity;BMP_temperature;BMP_pressure;BME280_temperature;BME280_humidity;BME280_pressure;Samples;Min_cycle;Max_cycle;Signal;HPM_P1;HPM_P2
2023/12/06 00:02:00;;;;;;;0.10;0.10;;;6.70;99.90;;;;;;5073099;28;20039;-74
2023/12/06 00:04:26;;;;;;;3.13;2.22;;;6.80;99.90;;;;;;5057272;28;20025;-74
2023/12/06 00:06:51;;;;;;;0.77;0.77;;;6.60;99.90;;;;;;5064584;28;20021;-74
2023/12/06 00:09:17;;;;;;;1.80;1.70;;;6.60;99.90;;;;;;5067488;28;20024;-74
2023/12/06 00:11:44;;;;;;;0.85;0.70;;;6.60;99.90;;;;;;5072958;28;20037;-74
2023/12/06 00:14:09;;;;;;;0.05;0.05;;;6.70;99.90;;;;;;5072438;28;20025;-74
2023/12/06 00:16:39;;;;;;;1.45;0.98;;;6.60;99.90;;;;;;5072687;28;20039;-74
2023/12/06 00:19:05;;;;;;;0.20;0.20;;;6.50;99.90;;;;;;5060293;28;20427;-74
2023/12/06 00:21:31;;;;;;;0.20;0.20;;;6.80;99.90;;;;;;5070201;28;20050;-74
2023/12/06 00:23:57;;;;;;;0.00;0.00;;;6.80;99.90;;;;;;5070642;28;20040;-75
2023/12/06 00:26:22;;;;;;;1.85;1.30;;;6.90;99.90;;;;;;5071260;28;20027;-74
2023/12/06 00:28:49;;;;;;;4.25;3.83;;;6.90;99.90;;;;;;5072524;28;20354;-74
2023/12/06 00:31:15;;;;;;;0.30;0.30;;;6.70;99.90;;;;;;5072807;28;20078;-74
2023/12/06 00:33:41;;;;;;;1.60;1.50;;;6.90;99.90;;;;;;5072592;28;20016;-75
2023/12/06 00:36:07;;;;;;;1.60;0.88;;;6.90;99.90;;;;;;5072782;28;20031;-74
2023/12/06 00:38:32;;;;;;;5.60;2.80;;;6.80;99.90;;;;;;5072231;28;20438;-74
2023/12/06 00:41:00;;;;;;;0.77;0.77;;;6.70;99.90;;;;;;5072617;28;20108;-74
2023/12/06 00:43:26;;;;;;;12.32;3.10;;;6.70;99.90;;;;;;5071052;28;20033;-74
2023/12/06 00:45:52;;;;;;;3.15;1.20;;;6.80;99.90;;;;;;5072777;28;20031;-74
2023/12/06 00:48:18;;;;;;;1.48;1.20;;;7.00;99.90;;;;;;5072500;28;20060;-74
2023/12/06 00:50:48;;;;;;;0.10;0.10;;;6.90;99.90;;;;;;5071004;28;20055;-74
2023/12/06 00:53:14;;;;;;;0.73;0.73;;;7.00;99.90;;;;;;5072457;28;20045;-74
2023/12/06 00:55:39;;;;;;;1.20;1.20;;;7.00;99.90;;;;;;5072403;28;20465;-74
2023/12/06 00:58:05;;;;;;;1.08;0.60;;;6.90;99.90;;;;;;5072476;28;20036;-74
2023/12/06 01:00:31;;;;;;;1.35;1.25;;;6.90;99.90;;;;;;5072304;28;20028;-74
2023/12/06 01:02:57;;;;;;;4.97;3.13;;;6.80;99.90;;;;;;5067784;28;20052;-74
2023/12/06 01:05:23;;;;;;;1.85;1.65;;;6.80;99.90;;;;;;5044765;28;20520;-74
2023/12/06 01:07:49;;;;;;;2.03;1.88;;;6.70;99.90;;;;;;5054533;28;20045;-75
2023/12/06 01:10:15;;;;;;;2.05;1.85;;;6.80;99.90;;;;;;5072337;28;20033;-75
2023/12/06 01:12:41;;;;;;;6.20;5.78;;;6.70;99.90;;;;;;5070839;28;20024;-75
2023/12/06 01:15:07;;;;;;;1.92;1.83;;;6.80;99.90;;;;;;5070853;28;20370;-75
2023/12/06 01:17:33;;;;;;;3.63;2.15;;;6.80;99.90;;;;;;5072273;28;20063;-75
2023/12/06 01:19:59;;;;;;;3.75;2.25;;;6.80;99.90;;;;;;5072103;28;20033;-75
2023/12/06 01:22:25;;;;;;;3.05;1.70;;;6.80;99.90;;;;;;5072311;28;20024;-74
2023/12/06 01:25:00;;;;;;;0.55;0.55;;;6.90;99.90;;;;;;5071940;28;20166;-75
2023/12/06 01:27:26;;;;;;;8.73;6.85;;;6.90;99.90;;;;;;5070614;28;20025;-75
2023/12/06 01:29:52;;;;;;;6.55;3.65;;;6.80;99.90;;;;;;5072233;28;20031;-74
2023/12/06 01:32:18;;;;;;;2.85;2.05;;;6.90;99.90;;;;;;5072079;28;20024;-75
2023/12/06 01:34:44;;;;;;;2.33;2.00;;;6.90;99.90;;;;;;5050964;28;20083;-75
2023/12/06 01:37:10;;;;;;;1.10;0.63;;;7.00;99.90;;;;;;5055532;28;20493;-75
2023/12/06 01:39:39;;;;;;;0.85;0.85;;;7.00;99.90;;;;;;5054276;28;20051;-74
2023/12/06 01:42:06;;;;;;;0.35;0.35;;;7.00;99.90;;;;;;5054092;28;20071;-75
2023/12/06 01:44:31;;;;;;;32.47;1.45;;;7.20;99.90;;;;;;5055661;28;20025;-75
2023/12/06 01:46:58;;;;;;;2.40;1.98;;;7.20;99.90;;;;;;5055565;28;20033;-75
2023/12/06 01:49:26;;;;;;;1.27;1.25;;;7.30;99.90;;;;;;5055740;28;20110;-75
2023/12/06 01:51:52;;;;;;;1.17;1.17;;;7.40;99.90;;;;;;5055295;28;20481;-75
2023/12/06 01:54:18;;;;;;;0.52;0.52;;;7.50;99.90;;;;;;5055337;28;20068;-75
2023/12/06 01:56:45;;;;;;;0.10;0.10;;;7.30;99.90;;;;;;5055195;28;20415;-76
2023/12/06 01:59:12;;;;;;;1.90;1.75;;;7.40;99.90;;;;;;5054000;28;20041;-75
2023/12/06 02:01:38;;;;;;;6.68;3.42;;;7.20;99.90;;;;;;5054057;28;20123;-75
2023/12/06 02:04:04;;;;;;;0.00;0.00;;;7.10;99.90;;;;;;5053909;28;20025;-76
2023/12/06 02:06:30;;;;;;;1.77;1.38;;;7.20;99.90;;;;;;5055149;28;20064;-75
2023/12/06 02:08:58;;;;;;;0.28;0.28;;;7.10;99.90;;;;;;5053587;28;20029;-75
2023/12/06 02:11:28;;;;;;;0.00;0.00;;;7.20;99.90;;;;;;5053960;28;20170;-75
2023/12/06 02:13:54;;;;;;;1.20;1.20;;;7.20;99.90;;;;;;5055176;28;20117;-75
2023/12/06 02:16:20;;;;;;;1.55;1.45;;;7.20;99.90;;;;;;5054906;28;20029;-76
2023/12/06 02:18:47;;;;;;;0.10;0.10;;;7.00;99.90;;;;;;5054941;28;20554;-75
2023/12/06 02:21:13;;;;;;;0.10;0.10;;;7.00;99.90;;;;;;5054956;28;20045;-75
2023/12/06 02:23:45;;;;;;;1.10;1.02;;;7.00;99.90;;;;;;5054623;28;20037;-75
2023/12/06 02:26:11;;;;;;;0.52;0.40;;;6.90;99.90;;;;;;5054699;28;20021;-74
2023/12/06 02:28:37;;;;;;;2.33;2.22;;;6.90;99.90;;;;;;5055000;28;20090;-75
2023/12/06 02:31:03;;;;;;;7.43;0.65;;;6.90;99.90;;;;;;5054401;28;20036;-75
2023/12/06 02:33:31;;;;;;;0.63;0.60;;;7.00;99.90;;;;;;5054701;28;20029;-75
2023/12/06 02:36:00;;;;;;;6.82;5.63;;;7.00;99.90;;;;;;5054910;28;20013;-74
2023/12/06 02:38:27;;;;;;;0.20;0.20;;;7.00;99.90;;;;;;5054241;28;20120;-75
2023/12/06 02:40:54;;;;;;;0.20;0.20;;;7.00;99.90;;;;;;5054765;28;20021;-74
2023/12/06 02:43:21;;;;;;;0.10;0.10;;;7.00;99.90;;;;;;5054175;28;20025;-74
2023/12/06 02:45:47;;;;;;;2.05;1.25;;;7.00;99.90;;;;;;5054573;28;20049;-74
2023/12/06 02:48:13;;;;;;;0.00;0.00;;;7.00;99.90;;;;;;5053508;28;20064;-75
2023/12/06 02:50:39;;;;;;;0.00;0.00;;;6.90;99.90;;;;;;5053303;28;20017;-74
2023/12/06 02:53:05;;;;;;;0.00;0.00;;;6.90;99.90;;;;;;5054213;28;20037;-74
2023/12/06 02:55:31;;;;;;;1.15;1.08;;;7.00;99.90;;;;;;5054254;28;20013;-76
2023/12/06 02:57:57;;;;;;;0.25;0.25;;;7.00;99.90;;;;;;5054119;28;20072;-76
2023/12/06 03:00:23;;;;;;;3.10;1.35;;;7.00;99.90;;;;;;5054267;28;20104;-75
2023/12/06 03:02:52;;;;;;;0.28;0.22;;;6.90;99.90;;;;;;5054190;28;20162;-75
2023/12/06 03:05:19;;;;;;;9.90;2.35;;;6.90;99.90;;;;;;5054174;28;20426;-76
2023/12/06 03:07:45;;;;;;;0.20;0.20;;;6.90;99.90;;;;;;5053537;28;20029;-75
2023/12/06 03:10:11;;;;;;;7.35;2.13;;;7.00;99.90;;;;;;5054223;28;20163;-75
2023/12/06 03:12:37;;;;;;;2.60;1.30;;;7.00;99.90;;;;;;5053977;28;20492;-75
2023/12/06 03:15:03;;;;;;;0.00;0.00;;;7.00;99.90;;;;;;5053963;28;20040;-74
2023/12/06 03:17:29;;;;;;;0.00;0.00;;;7.10;99.90;;;;;;5053534;28;20029;-75
2023/12/06 03:19:58;;;;;;;2.35;2.17;;;7.10;99.90;;;;;;5053771;28;20159;-74
2023/12/06 03:22:24;;;;;;;0.60;0.60;;;6.90;99.90;;;;;;5053242;28;20052;-74
2023/12/06 03:24:50;;;;;;;2.05;1.95;;;6.90;99.90;;;;;;5053737;28;20469;-75
2023/12/06 03:27:16;;;;;;;0.88;0.88;;;6.90;99.90;;;;;;5053550;28;20036;-75
2023/12/06 03:29:42;;;;;;;1.10;0.85;;;6.90;99.90;;;;;;5053599;28;20421;-74
2023/12/06 03:32:07;;;;;;;1.45;1.35;;;6.80;99.90;;;;;;5053686;28;20017;-74
2023/12/06 03:34:33;;;;;;;2.72;0.57;;;6.80;99.90;;;;;;5053505;28;20473;-74
2023/12/06 03:37:00;;;;;;;0.05;0.05;;;6.70;99.90;;;;;;5053369;28;20359;-75
2023/12/06 03:39:26;;;;;;;0.75;0.75;;;6.80;99.90;;;;;;5051855;28;20031;-74
2023/12/06 03:41:52;;;;;;;0.00;0.00;;;6.70;99.90;;;;;;5053378;28;20021;-75
2023/12/06 03:44:18;;;;;;;3.60;1.42;;;6.80;99.90;;;;;;5052055;28;20512;-75
2023/12/06 03:46:44;;;;;;;1.85;0.98;;;6.80;99.90;;;;;;5053263;28;20028;-74
2023/12/06 03:49:09;;;;;;;1.00;1.00;;;6.90;99.90;;;;;;5053233;28;20428;-75
2023/12/06 03:51:35;;;;;;;1.02;0.95;;;6.90;99.90;;;;;;5052863;28;20013;-75
2023/12/06 03:54:02;;;;;;;2.75;0.70;;;6.90;99.90;;;;;;5053541;28;20036;-75
2023/12/06 03:56:27;;;;;;;0.95;0.93;;;6.80;99.90;;;;;;5051998;28;20377;-75
2023/12/06 03:58:54;;;;;;;0.70;0.70;;;6.80;99.90;;;;;;5052554;28;20048;-75
2023/12/06 04:01:20;;;;;;;1.20;0.80;;;6.90;99.90;;;;;;5053176;28;20025;-74
2023/12/06 04:03:46;;;;;;;3.25;1.20;;;6.90;99.90;;;;;;5051569;28;20029;-75
2023/12/06 04:06:12;;;;;;;0.93;0.93;;;6.80;99.90;;;;;;5053057;28;20032;-75
2023/12/06 04:08:38;;;;;;;2.65;2.45;;;6.80;99.90;;;;;;5052844;28;20044;-75
2023/12/06 04:11:04;;;;;;;0.63;0.63;;;6.80;99.90;;;;;;5052645;28;20013;-74
2023/12/06 04:13:31;;;;;;;1.08;0.93;;;6.80;99.90;;;;;;5052901;28;20029;-74
2023/12/06 04:15:57;;;;;;;0.40;0.40;;;6.80;99.90;;;;;;5052485;28;20025;-74
2023/12/06 04:18:22;;;;;;;1.70;1.60;;;6.90;99.90;;;;;;5052503;28;20041;-74
2023/12/06 04:20:48;;;;;;;3.05;1.05;;;6.90;99.90;;;;;;5052231;28;20100;-74
2023/12/06 04:23:14;;;;;;;0.90;0.88;;;6.90;99.90;;;;;;5052748;28;20032;-75
2023/12/06 04:25:40;;;;;;;2.55;2.35;;;7.00;99.90;;;;;;5052453;28;20029;-74
2023/12/06 04:28:07;;;;;;;0.10;0.10;;;6.90;99.90;;;;;;5052819;28;20025;-74
2023/12/06 04:30:33;;;;;;;6.03;2.55;;;7.00;99.90;;;;;;5052600;28;20032;-75
2023/12/06 04:33:00;;;;;;;0.47;0.47;;;7.00;99.90;;;;;;5052612;28;20031;-75
2023/12/06 04:35:26;;;;;;;0.10;0.10;;;7.10;99.90;;;;;;5052259;28;20470;-75
2023/12/06 04:37:51;;;;;;;0.88;0.20;;;7.10;99.90;;;;;;5052430;28;20029;-75
2023/12/06 04:40:17;;;;;;;0.00;0.00;;;7.00;99.90;;;;;;5052370;28;20111;-75
2023/12/06 04:42:43;;;;;;;0.35;0.35;;;7.10;99.90;;;;;;5052535;28;20485;-74
2023/12/06 04:45:09;;;;;;;1.30;1.20;;;7.20;99.90;;;;;;5050810;28;20028;-75
2023/12/06 04:47:35;;;;;;;1.20;1.10;;;7.00;99.90;;;;;;5052624;28;20036;-74
2023/12/06 04:50:01;;;;;;;1.17;0.63;;;7.00;99.90;;;;;;5052050;28;20382;-75
2023/12/06 04:52:26;;;;;;;11.40;3.72;;;7.00;99.90;;;;;;5052465;28;20496;-74
2023/12/06 04:54:52;;;;;;;2.05;1.65;;;7.00;99.90;;;;;;5052275;28;20029;-75
2023/12/06 04:57:19;;;;;;;2.17;1.90;;;7.00;99.90;;;;;;5052521;28;20039;-75
2023/12/06 04:59:45;;;;;;;0.32;0.32;;;6.90;99.90;;;;;;5052351;28;20485;-75
2023/12/06 05:02:11;;;;;;;5.13;0.52;;;7.00;99.90;;;;;;5052351;28;20029;-75
2023/12/06 05:04:36;;;;;;;0.08;0.08;;;7.00;99.90;;;;;;5051934;28;20032;-74
2023/12/06 05:07:02;;;;;;;0.10;0.10;;;7.00;99.90;;;;;;5052337;28;20450;-74
2023/12/06 05:09:28;;;;;;;3.40;1.08;;;7.00;99.90;;;;;;5052446;28;20838;-75
2023/12/06 05:11:54;;;;;;;1.90;1.27;;;7.00;99.90;;;;;;5056041;28;20488;-75
2023/12/06 05:14:19;;;;;;;0.10;0.10;;;7.00;99.90;;;;;;5056282;28;20034;-74
2023/12/06 05:16:45;;;;;;;3.05;2.22;;;7.00;99.90;;;;;;5054770;28;20389;-75
2023/12/06 05:19:11;;;;;;;0.28;0.20;;;7.00;99.90;;;;;;5054778;28;20444;-74
2023/12/06 05:21:37;;;;;;;0.00;0.00;;;7.10;99.90;;;;;;5055944;28;20029;-75
2023/12/06 05:24:03;;;;;;;0.82;0.82;;;7.20;99.90;;;;;;5056115;28;20859;-75
2023/12/06 05:26:29;;;;;;;0.03;0.03;;;7.20;99.90;;;;;;5056039;28;20413;-74
2023/12/06 05:28:55;;;;;;;0.00;0.00;;;7.30;99.90;;;;;;5055899;28;20123;-75
2023/12/06 05:31:21;;;;;;;0.00;0.00;;;7.40;99.90;;;;;;5054864;28;20029;-74
2023/12/06 05:33:48;;;;;;;0.10;0.10;;;7.50;99.90;;;;;;5054637;28;20051;-75
2023/12/06 05:36:14;;;;;;;0.05;0.05;;;7.60;99.90;;;;;;5055579;28;20048;-75
2023/12/06 05:38:40;;;;;;;0.30;0.30;;;7.70;99.90;;;;;;5055828;28;20090;-75
2023/12/06 05:41:06;;;;;;;0.73;0.73;;;7.60;99.90;;;;;;5055648;28;20032;-75
2023/12/06 05:43:33;;;;;;;0.32;0.32;;;7.60;99.90;;;;;;5055649;28;20025;-75
2023/12/06 05:45:59;;;;;;;0.10;0.10;;;7.60;99.90;;;;;;5055567;28;20025;-75
2023/12/06 05:48:25;;;;;;;0.00;0.00;;;7.60;99.90;;;;;;5055240;28;20090;-75
2023/12/06 05:50:50;;;;;;;0.00;0.00;;;7.40;99.90;;;;;;5055495;28;20078;-75
2023/12/06 05:53:16;;;;;;;0.00;0.00;;;7.50;99.90;;;;;;5055543;28;20086;-75
2023/12/06 05:55:43;;;;;;;0.85;0.85;;;7.50;99.90;;;;;;5055624;28;20013;-75
2023/12/06 05:58:09;;;;;;;0.10;0.10;;;7.60;99.90;;;;;;5055658;28;20033;-75
2023/12/06 06:00:35;;;;;;;0.00;0.00;;;7.50;99.90;;;;;;5055289;28;20021;-75
2023/12/06 06:03:00;;;;;;;0.00;0.00;;;7.50;99.90;;;;;;5049183;28;20033;-75
2023/12/06 06:05:26;;;;;;;0.10;0.10;;;7.50;99.90;;;;;;5053296;28;20374;-75
2023/12/06 06:07:55;;;;;;;0.32;0.32;;;7.50;99.90;;;;;;5054934;28;20033;-75
2023/12/06 06:10:21;;;;;;;0.00;0.00;;;7.40;99.90;;;;;;5055158;28;20397;-75
2023/12/06 06:12:47;;;;;;;0.47;0.47;;;7.30;99.90;;;;;;5055194;28;20021;-75
2023/12/06 06:15:13;;;;;;;0.10;0.10;;;7.30;99.90;;;;;;5055500;28;20025;-75
2023/12/06 06:17:38;;;;;;;0.00;0.00;;;7.10;99.90;;;;;;5054399;28;20036;-75
2023/12/06 06:20:06;;;;;;;0.00;0.00;;;6.90;99.90;;;;;;5054897;28;20091;-75
2023/12/06 06:22:31;;;;;;;0.10;0.10;;;6.70;99.90;;;;;;5053646;28;20021;-75
2023/12/06 06:24:57;;;;;;;0.63;0.63;;;6.80;99.90;;;;;;5054882;28;20035;-74
2023/12/06 06:27:23;;;;;;;0.00;0.00;;;6.60;99.90;;;;;;5054648;28;20096;-75
2023/12/06 06:29:49;;;;;;;3.25;2.95;;;6.50;99.90;;;;;;5054465;28;20017;-75
2023/12/06 06:32:15;;;;;;;0.00;0.00;;;6.40;99.90;;;;;;5054858;28;20462;-75
2023/12/06 06:34:42;;;;;;;1.55;0.55;;;6.30;99.90;;;;;;5033438;28;20021;-74
2023/12/06 06:37:11;;;;;;;0.30;0.30;;;6.10;99.90;;;;;;5054120;28;20013;-74
2023/12/06 06:39:38;;;;;;;0.63;0.63;;;6.10;99.90;;;;;;5058945;28;20032;-75
2023/12/06 06:42:04;;;;;;;0.75;0.50;;;5.90;99.90;;;;;;5063865;28;20060;-74
2023/12/06 06:44:31;;;;;;;0.70;0.70;;;5.90;99.90;;;;;;5054095;28;20033;-75
2023/12/06 06:46:57;;;;;;;0.30;0.30;;;5.80;99.90;;;;;;5054358;28;20033;-74
2023/12/06 06:49:24;;;;;;;0.20;0.20;;;5.80;99.90;;;;;;5036859;28;20028;-74
2023/12/06 06:51:51;;;;;;;0.13;0.13;;;5.70;99.90;;;;;;5054000;28;20147;-75
2023/12/06 06:54:17;;;;;;;0.00;0.00;;;5.90;99.90;;;;;;5054536;28;20032;-75
2023/12/06 06:56:42;;;;;;;2.95;2.15;;;5.90;99.90;;;;;;5054682;28;20033;-74
2023/12/06 06:59:09;;;;;;;0.10;0.10;;;6.00;99.90;;;;;;5053931;28;20041;-75
2023/12/06 07:01:35;;;;;;;0.10;0.10;;;6.10;99.90;;;;;;5054350;28;20037;-75
2023/12/06 07:04:03;;;;;;;16.30;2.38;;;6.30;99.90;;;;;;5053899;28;20036;-76
2023/12/06 07:06:30;;;;;;;0.50;0.50;;;6.30;99.90;;;;;;5054150;28;20047;-75
2023/12/06 07:08:56;;;;;;;0.05;0.05;;;6.20;99.90;;;;;;5053104;28;20095;-75
2023/12/06 07:11:22;;;;;;;0.00;0.00;;;6.10;99.90;;;;;;5054157;28;20485;-75
2023/12/06 07:13:49;;;;;;;0.35;0.35;;;6.10;99.90;;;;;;5053603;28;20033;-75
2023/12/06 07:16:16;;;;;;;0.00;0.00;;;6.00;99.90;;;;;;5054494;28;20068;-75
2023/12/06 07:18:42;;;;;;;0.00;0.00;;;6.00;99.90;;;;;;5057105;28;20112;-75
2023/12/06 07:21:08;;;;;;;0.00;0.00;;;6.10;99.90;;;;;;5055216;28;20453;-75
2023/12/06 07:23:34;;;;;;;0.10;0.10;;;6.10;99.90;;;;;;5061354;28;20052;-75
2023/12/06 07:26:00;;;;;;;0.25;0.25;;;6.10;99.90;;;;;;5056377;28;20060;-75
2023/12/06 07:28:26;;;;;;;0.10;0.10;;;5.80;99.90;;;;;;5058179;28;20025;-75
2023/12/06 07:30:52;;;;;;;0.10;0.10;;;5.80;99.90;;;;;;5055871;28;20021;-75
2023/12/06 07:33:19;;;;;;;0.22;0.13;;;5.70;99.90;;;;;;5052366;28;20116;-76
2023/12/06 07:35:44;;;;;;;0.10;0.10;;;5.90;99.90;;;;;;5056354;28;20095;-76
2023/12/06 07:38:11;;;;;;;36.10;2.78;;;5.70;99.90;;;;;;5053946;28;20679;-75
2023/12/06 07:40:37;;;;;;;0.25;0.25;;;5.60;99.90;;;;;;5057758;28;20029;-75
2023/12/06 07:43:02;;;;;;;0.13;0.13;;;5.40;99.90;;;;;;5052479;28;20043;-75
2023/12/06 07:45:28;;;;;;;0.40;0.28;;;5.50;99.90;;;;;;5059378;28;20029;-75
2023/12/06 07:47:54;;;;;;;0.00;0.00;;;5.40;99.90;;;;;;5065717;28;20041;-75
2023/12/06 07:50:20;;;;;;;0.47;0.47;;;5.40;99.90;;;;;;5056565;28;20096;-73
2023/12/06 07:52:47;;;;;;;0.00;0.00;;;5.40;99.90;;;;;;5053602;28;20025;-74
2023/12/06 07:55:14;;;;;;;0.05;0.05;;;5.50;99.90;;;;;;5064352;28;20029;-74
2023/12/06 07:57:40;;;;;;;0.10;0.10;;;5.50;99.90;;;;;;5045071;28;20103;-75
2023/12/06 08:00:11;;;;;;;1.48;1.23;;;5.60;99.90;;;;;;5063192;28;20116;-75
2023/12/06 08:02:41;;;;;;;1.25;1.15;;;5.60;99.90;;;;;;5055882;28;20100;-75
2023/12/06 08:05:10;;;;;;;0.80;0.55;;;5.50;99.90;;;;;;5053517;28;20482;-75
2023/12/06 08:07:39;;;;;;;1.55;1.45;;;5.50;99.90;;;;;;5068340;28;20032;-75
2023/12/06 08:10:22;;;;;;;0.10;0.10;;;5.60;99.90;;;;;;5064873;28;20392;-75
2023/12/06 08:12:49;;;;;;;0.08;0.08;;;5.70;99.90;;;;;;5050508;28;20025;-75
2023/12/06 08:15:15;;;;;;;0.20;0.20;;;5.80;99.90;;;;;;5054514;28;20040;-75
2023/12/06 08:17:41;;;;;;;0.00;0.00;;;5.90;99.90;;;;;;5051175;28;20473;-74
2023/12/06 08:20:10;;;;;;;0.03;0.03;;;6.00;99.90;;;;;;5053167;28;20048;-75
2023/12/06 08:22:36;;;;;;;1.58;1.48;;;6.40;99.90;;;;;;5052630;28;20106;-75
2023/12/06 08:25:03;;;;;;;0.70;0.70;;;6.30;99.90;;;;;;5050366;28;20461;-75
2023/12/06 08:27:29;;;;;;;3.42;1.02;;;6.30;99.90;;;;;;5051714;28;20045;-75
2023/12/06 08:29:57;;;;;;;0.00;0.00;;;6.20;99.90;;;;;;5049327;28;20094;-75
2023/12/06 08:32:24;;;;;;;0.00;0.00;;;6.20;99.90;;;;;;5033953;28;20466;-75
2023/12/06 08:34:50;;;;;;;0.93;0.93;;;6.10;99.90;;;;;;5055373;28;20033;-75
2023/12/06 08:37:16;;;;;;;0.00;0.00;;;6.10;99.90;;;;;;5056334;28;20040;-75
2023/12/06 08:39:43;;;;;;;0.05;0.05;;;6.20;99.90;;;;;;5054401;28;20112;-75
2023/12/06 08:42:09;;;;;;;1.65;1.13;;;6.30;99.90;;;;;;5054567;28;20021;-75
2023/12/06 08:44:35;;;;;;;0.45;0.45;;;6.30;99.90;;;;;;5051475;28;20060;-75
2023/12/06 08:47:02;;;;;;;0.57;0.57;;;6.40;99.90;;;;;;5064985;28;20041;-75
2023/12/06 08:49:29;;;;;;;0.93;0.63;;;6.50;99.90;;;;;;5063734;28;20074;-75
2023/12/06 08:51:55;;;;;;;6.70;1.75;;;6.40;99.90;;;;;;5056317;28;20397;-75
2023/12/06 08:54:21;;;;;;;1.40;1.35;;;6.30;99.90;;;;;;5054107;28;20040;-75
2023/12/06 08:56:46;;;;;;;0.55;0.55;;;6.30;99.90;;;;;;5065132;28;20032;-75
2023/12/06 08:59:12;;;;;;;0.88;0.88;;;6.40;99.90;;;;;;5061079;28;20044;-75
2023/12/06 09:01:38;;;;;;;0.00;0.00;;;6.30;99.90;;;;;;5063994;28;20021;-75
2023/12/06 09:04:04;;;;;;;0.00;0.00;;;6.30;99.90;;;;;;5055565;28;20122;-75
2023/12/06 09:06:30;;;;;;;0.30;0.30;;;6.30;99.90;;;;;;5051864;28;20075;-75
2023/12/06 09:08:55;;;;;;;0.32;0.10;;;6.20;99.90;;;;;;5063585;28;20143;-75
2023/12/06 09:11:22;;;;;;;2.75;1.75;;;6.20;99.90;;;;;;5065573;28;20380;-74
2023/12/06 09:13:49;;;;;;;0.65;0.65;;;6.20;99.90;;;;;;5061084;28;20032;-75
2023/12/06 09:16:15;;;;;;;0.35;0.35;;;6.20;99.90;;;;;;5053457;28;20044;-76
2023/12/06 09:18:41;;;;;;;4.63;1.67;;;6.40;99.90;;;;;;5057100;28;20032;-74
2023/12/06 09:21:07;;;;;;;1.55;1.27;;;6.70;99.90;;;;;;5065239;28;20490;-74
2023/12/06 09:23:33;;;;;;;7.05;0.82;;;6.70;99.90;;;;;;5058237;28;20023;-75
2023/12/06 09:25:59;;;;;;;0.68;0.68;;;6.80;99.90;;;;;;5056259;28;20017;-74
2023/12/06 09:28:25;;;;;;;2.17;1.95;;;6.70;99.90;;;;;;5060869;28;20067;-74
2023/12/06 09:30:51;;;;;;;1.73;1.17;;;6.70;99.90;;;;;;5053252;28;20036;-74
2023/12/06 09:33:19;;;;;;;0.10;0.10;;;6.80;99.90;;;;;;5065369;28;20017;-74
2023/12/06 09:35:45;;;;;;;0.30;0.30;;;7.00;99.90;;;;;;5062931;28;20027;-74
2023/12/06 09:38:12;;;;;;;0.10;0.10;;;7.30;99.90;;;;;;5054928;28;20398;-74
2023/12/06 09:40:38;;;;;;;0.20;0.20;;;7.40;99.90;;;;;;5040418;28;20064;-75
2023/12/06 09:43:03;;;;;;;0.45;0.45;;;7.30;99.90;;;;;;5050192;28;20025;-74
2023/12/06 09:45:30;;;;;;;0.35;0.35;;;7.30;99.90;;;;;;5056552;28;20112;-74
2023/12/06 09:47:56;;;;;;;5.95;0.32;;;7.20;99.90;;;;;;5066351;28;20036;-76
2023/12/06 09:50:24;;;;;;;0.08;0.08;;;7.30;99.90;;;;;;5058320;28;20033;-76
2023/12/06 09:52:54;;;;;;;0.10;0.10;;;7.20;99.90;;;;;;5055231;28;20032;-76
2023/12/06 09:55:24;;;;;;;0.40;0.40;;;7.20;99.90;;;;;;5052716;28;20049;-76
2023/12/06 09:57:51;;;;;;;0.60;0.55;;;7.30;99.90;;;;;;5071932;28;20033;-76
2023/12/06 10:00:17;;;;;;;0.65;0.38;;;7.20;99.90;;;;;;5061812;28;20040;-76
2023/12/06 10:02:53;;;;;;;2.38;1.20;;;7.20;99.90;;;;;;5065199;28;20020;-76
2023/12/06 10:05:19;;;;;;;2.22;0.82;;;7.20;99.90;;;;;;5051603;28;20073;-76
2023/12/06 10:07:46;;;;;;;0.00;0.00;;;7.20;99.90;;;;;;5055743;28;20374;-76
2023/12/06 10:10:16;;;;;;;0.45;0.45;;;7.50;99.90;;;;;;5064819;28;20028;-76
2023/12/06 10:12:58;;;;;;;0.00;0.00;;;7.70;99.90;;;;;;5053718;28;20033;-76
2023/12/06 10:15:25;;;;;;;0.10;0.10;;;7.80;99.90;;;;;;5053090;28;20024;-76
2023/12/06 10:17:51;;;;;;;0.10;0.10;;;7.90;99.90;;;;;;5054685;28;20045;-75
2023/12/06 10:20:19;;;;;;;1.38;1.25;;;7.90;99.90;;;;;;5053453;28;20465;-76
2023/12/06 10:22:45;;;;;;;2.78;2.65;;;7.90;99.90;;;;;;5062126;28;20466;-76
2023/12/06 10:25:11;;;;;;;0.40;0.40;;;7.60;99.90;;;;;;5061947;28;20082;-77
2023/12/06 10:27:37;;;;;;;0.10;0.10;;;7.80;99.90;;;;;;5058489;28;20062;-77
2023/12/06 10:30:06;;;;;;;0.00;0.00;;;7.70;99.90;;;;;;5056332;28;20114;-80
2023/12/06 10:32:33;;;;;;;1.10;1.05;;;8.00;99.90;;;;;;5065248;28;20078;-77
2023/12/06 10:35:02;;;;;;;3.40;1.10;;;8.10;99.90;;;;;;5054857;28;20134;-77
2023/12/06 10:37:28;;;;;;;0.10;0.10;;;7.90;99.90;;;;;;5057663;28;20032;-77
2023/12/06 10:40:10;;;;;;;0.20;0.20;;;8.00;99.90;;;;;;5062075;28;20484;-78
2023/12/06 10:42:38;;;;;;;0.10;0.10;;;8.20;99.90;;;;;;5065118;28;20361;-78
2023/12/06 10:45:05;;;;;;;5.97;2.05;;;8.20;99.90;;;;;;5055942;28;20014;-78
2023/12/06 10:47:31;;;;;;;1.88;0.85;;;7.80;99.90;;;;;;5052125;28;20029;-77
2023/12/06 10:49:58;;;;;;;0.65;0.65;;;7.70;99.90;;;;;;5053098;28;20025;-77
2023/12/06 10:52:24;;;;;;;0.10;0.10;;;7.80;99.90;;;;;;5054166;28;20047;-78
2023/12/06 10:54:51;;;;;;;6.97;1.52;;;8.10;99.90;;;;;;5054002;28;20064;-77
2023/12/06 10:57:20;;;;;;;0.05;0.05;;;8.20;99.90;;;;;;5052876;28;20385;-77
2023/12/06 10:59:47;;;;;;;1.75;0.32;;;8.10;99.90;;;;;;5053247;28;20036;-77
2023/12/06 11:02:13;;;;;;;0.30;0.20;;;8.20;99.90;;;;;;5054150;28;20029;-77
2023/12/06 11:04:45;;;;;;;2.75;1.63;;;8.10;99.90;;;;;;5054378;28;20021;-77
2023/12/06 11:07:22;;;;;;;3.40;2.83;;;7.90;99.90;;;;;;5053100;28;20428;-77
2023/12/06 11:10:08;;;;;;;0.47;0.47;;;7.60;99.90;;;;;;5053878;28;20413;-77
2023/12/06 11:13:12;;;;;;;0.22;0.22;;;7.50;99.90;;;;;;5054075;28;20428;-79
2023/12/06 11:16:07;;;;;;;1.10;1.00;;;7.50;99.90;;;;;;5072628;28;20089;-80
2023/12/06 11:18:44;;;;;;;0.00;0.00;;;7.50;99.90;;;;;;5073161;28;20563;-80
2023/12/06 11:21:13;;;;;;;0.17;0.17;;;7.50;99.90;;;;;;5059772;28;20028;-82
2023/12/06 11:23:41;;;;;;;0.20;0.20;;;7.60;99.90;;;;;;5036246;28;20401;-82
2023/12/06 11:26:07;;;;;;;0.10;0.10;;;7.70;99.90;;;;;;5053794;28;20025;-81
2023/12/06 11:28:41;;;;;;;0.35;0.35;;;7.80;99.90;;;;;;5053524;28;20484;-83
2023/12/06 11:31:11;;;;;;;1.30;1.20;;;7.90;99.90;;;;;;5053645;28;20071;-82
2023/12/06 11:33:37;;;;;;;0.10;0.10;;;8.00;99.90;;;;;;5052733;28;20049;-81
2023/12/06 11:36:03;;;;;;;0.00;0.00;;;8.20;99.90;;;;;;5053289;28;20059;-81
2023/12/06 11:38:37;;;;;;;22.08;4.57;;;8.10;99.90;;;;;;5053438;28;20077;-81
2023/12/06 11:41:06;;;;;;;0.10;0.10;;;8.00;99.90;;;;;;5052398;28;20025;-81
2023/12/06 11:43:33;;;;;;;0.32;0.32;;;8.10;99.90;;;;;;5053454;28;20112;-81
2023/12/06 11:46:09;;;;;;;0.65;0.65;;;7.90;99.90;;;;;;5053422;28;20060;-82
2023/12/06 11:48:37;;;;;;;4.43;1.23;;;8.10;99.90;;;;;;5053132;28;20056;-82
2023/12/06 11:51:04;;;;;;;0.30;0.30;;;8.10;99.90;;;;;;5053197;28;20116;-83
2023/12/06 11:53:30;;;;;;;0.30;0.30;;;8.10;99.90;;;;;;5052964;28;20496;-82
2023/12/06 11:55:57;;;;;;;0.55;0.55;;;8.10;99.90;;;;;;5053353;28;20035;-81
2023/12/06 11:58:30;;;;;;;0.20;0.20;;;8.20;99.90;;;;;;5051577;28;20389;-82
2023/12/06 12:00:56;;;;;;;0.85;0.85;;;8.30;99.90;;;;;;5053176;28;20033;-83
2023/12/06 12:03:22;;;;;;;18.05;1.08;;;9.60;99.90;;;;;;5051252;28;20033;-80
2023/12/06 12:05:49;;;;;;;0.10;0.10;;;10.50;99.90;;;;;;5051772;28;20017;-81
2023/12/06 12:08:16;;;;;;;0.00;0.00;;;11.20;99.90;;;;;;5059665;28;20033;-80
2023/12/06 12:10:42;;;;;;;0.20;0.20;;;11.40;99.90;;;;;;5068204;28;20021;-80
2023/12/06 12:13:18;;;;;;;0.95;0.88;;;11.80;99.90;;;;;;5060520;28;20028;-78
2023/12/06 12:16:15;;;;;;;3.42;0.90;;;12.50;99.90;;;;;;5066209;28;20075;-81
2023/12/06 12:18:42;;;;;;;0.30;0.28;;;12.00;99.90;;;;;;5061938;28;20071;-76
2023/12/06 12:21:18;;;;;;;0.00;0.00;;;11.70;99.90;;;;;;5052430;28;20052;-76
2023/12/06 12:23:46;;;;;;;0.85;0.77;;;11.40;99.90;;;;;;5052951;28;20059;-77
2023/12/06 12:26:13;;;;;;;0.20;0.20;;;11.40;99.90;;;;;;5053166;28;20764;-78
2023/12/06 12:28:39;;;;;;;0.03;0.03;;;10.50;99.90;;;;;;5053144;28;20053;-77
2023/12/06 12:31:07;;;;;;;0.10;0.10;;;10.50;99.90;;;;;;5054319;28;20076;-76
2023/12/06 12:33:34;;;;;;;1.00;0.40;;;9.90;99.90;;;;;;5053938;28;20389;-75
2023/12/06 12:36:01;;;;;;;0.52;0.40;;;9.30;99.90;;;;;;5053142;28;20028;-77
2023/12/06 12:38:27;;;;;;;1.17;1.05;;;9.30;99.90;;;;;;5052705;28;20045;-75
2023/12/06 12:40:57;;;;;;;2.40;0.80;;;9.50;99.90;;;;;;5053081;28;20508;-76
2023/12/06 12:43:23;;;;;;;0.55;0.55;;;9.10;99.90;;;;;;5056490;28;20029;-77
2023/12/06 12:45:49;;;;;;;0.10;0.10;;;9.20;99.90;;;;;;5055454;28;20020;-77
2023/12/06 12:48:15;;;;;;;0.10;0.10;;;9.30;99.90;;;;;;5053735;28;20048;-77
2023/12/06 12:50:41;;;;;;;0.30;0.30;;;9.10;99.90;;;;;;5053551;28;20017;-76
2023/12/06 12:53:07;;;;;;;0.40;0.40;;;8.90;99.90;;;;;;5035732;28;20446;-76
2023/12/06 12:55:33;;;;;;;0.22;0.22;;;8.90;99.90;;;;;;5053834;28;20048;-76